sensor_id;sensor_type;location;lat;lon;timestamp;P1;durP1;ratioP1;P2;durP2;ratioP2
56015;SDS011;41894;51.016;4.672;2023-02-15T00:01:34;126.53;;;61.60;;
56015;SDS011;41894;51.016;4.672;2023-02-15T00:04:00;138.82;;;67.25;;
56015;SDS011;41894;51.016;4.672;2023-02-15T00:06:25;139.98;;;66.50;;
56015;SDS011;41894;51.016;4.672;2023-02-15T00:08:51;152.88;;;68.95;;
56015;SDS011;41894;51.016;4.672;2023-02-15T00:11:18;141.23;;;67.47;;
56015;SDS011;41894;51.016;4.672;2023-02-15T00:14:05;145.07;;;66.75;;
56015;SDS011;41894;51.016;4.672;2023-02-15T00:16:32;151.43;;;74.50;;
56015;SDS011;41894;51.016;4.672;2023-02-15T00:18:58;141.82;;;67.00;;
56015;SDS011;41894;51.016;4.672;2023-02-15T00:21:27;131.90;;;64.07;;
56015;SDS011;41894;51.016;4.672;2023-02-15T00:23:54;154.57;;;66.43;;
56015;SDS011;41894;51.016;4.672;2023-02-15T00:26:20;144.43;;;66.13;;
56015;SDS011;41894;51.016;4.672;2023-02-15T00:28:45;141.45;;;67.43;;
56015;SDS011;41894;51.016;4.672;2023-02-15T00:31:11;151.55;;;66.60;;
56015;SDS011;41894;51.016;4.672;2023-02-15T00:33:37;146.25;;;66.05;;
56015;SDS011;41894;51.016;4.672;2023-02-15T00:36:05;151.93;;;64.22;;
56015;SDS011;41894;51.016;4.672;2023-02-15T00:38:32;123.30;;;55.75;;
56015;SDS011;41894;51.016;4.672;2023-02-15T00:40:59;138.48;;;58.63;;
56015;SDS011;41894;51.016;4.672;2023-02-15T00:43:26;128.77;;;55.40;;
56015;SDS011;41894;51.016;4.672;2023-02-15T00:45:53;129.63;;;57.60;;
56015;SDS011;41894;51.016;4.672;2023-02-15T00:48:19;129.70;;;59.58;;
56015;SDS011;41894;51.016;4.672;2023-02-15T00:50:46;154.57;;;63.65;;
56015;SDS011;41894;51.016;4.672;2023-02-15T00:53:13;115.28;;;52.53;;
56015;SDS011;41894;51.016;4.672;2023-02-15T00:55:39;111.88;;;51.60;;
56015;SDS011;41894;51.016;4.672;2023-02-15T00:58:05;132.93;;;57.58;;
56015;SDS011;41894;51.016;4.672;2023-02-15T01:00:32;117.57;;;55.42;;
56015;SDS011;41894;51.016;4.672;2023-02-15T01:02:58;123.03;;;56.50;;
56015;SDS011;41894;51.016;4.672;2023-02-15T01:05:23;135.77;;;62.90;;
56015;SDS011;41894;51.016;4.672;2023-02-15T01:07:49;140.63;;;63.72;;
56015;SDS011;41894;51.016;4.672;2023-02-15T01:10:15;129.15;;;59.10;;
56015;SDS011;41894;51.016;4.672;2023-02-15T01:12:40;140.43;;;62.75;;
56015;SDS011;41894;51.016;4.672;2023-02-15T01:15:06;146.75;;;63.53;;
56015;SDS011;41894;51.016;4.672;2023-02-15T01:17:32;127.18;;;58.75;;
56015;SDS011;41894;51.016;4.672;2023-02-15T01:19:58;131.13;;;59.53;;
56015;SDS011;41894;51.016;4.672;2023-02-15T01:22:24;132.63;;;62.78;;
56015;SDS011;41894;51.016;4.672;2023-02-15T01:24:50;140.75;;;62.58;;
56015;SDS011;41894;51.016;4.672;2023-02-15T01:27:16;156.40;;;62.92;;
56015;SDS011;41894;51.016;4.672;2023-02-15T01:29:41;141.02;;;61.47;;
56015;SDS011;41894;51.016;4.672;2023-02-15T01:32:07;109.72;;;52.42;;
56015;SDS011;41894;51.016;4.672;2023-02-15T01:34:33;122.75;;;53.72;;
56015;SDS011;41894;51.016;4.672;2023-02-15T01:36:59;115.82;;;52.15;;
56015;SDS011;41894;51.016;4.672;2023-02-15T01:39:24;134.88;;;56.85;;
56015;SDS011;41894;51.016;4.672;2023-02-15T01:41:50;107.28;;;50.72;;
56015;SDS011;41894;51.016;4.672;2023-02-15T01:44:44;128.50;;;58.70;;
56015;SDS011;41894;51.016;4.672;2023-02-15T01:47:12;126.25;;;55.30;;
56015;SDS011;41894;51.016;4.672;2023-02-15T01:49:41;130.88;;;58.03;;
56015;SDS011;41894;51.016;4.672;2023-02-15T01:52:10;142.30;;;59.25;;
56015;SDS011;41894;51.016;4.672;2023-02-15T01:54:39;137.50;;;59.20;;
56015;SDS011;41894;51.016;4.672;2023-02-15T01:57:12;132.65;;;58.00;;
56015;SDS011;41894;51.016;4.672;2023-02-15T01:59:42;115.47;;;53.38;;
56015;SDS011;41894;51.016;4.672;2023-02-15T02:02:11;109.50;;;48.53;;
56015;SDS011;41894;51.016;4.672;2023-02-15T02:04:41;96.15;;;47.78;;
56015;SDS011;41894;51.016;4.672;2023-02-15T02:07:12;89.72;;;45.00;;
56015;SDS011;41894;51.016;4.672;2023-02-15T02:09:40;92.82;;;43.35;;
56015;SDS011;41894;51.016;4.672;2023-02-15T02:12:06;93.22;;;45.35;;
56015;SDS011;41894;51.016;4.672;2023-02-15T02:14:33;102.65;;;47.95;;
56015;SDS011;41894;51.016;4.672;2023-02-15T02:17:05;94.95;;;47.13;;
56015;SDS011;41894;51.016;4.672;2023-02-15T02:19:46;89.53;;;42.65;;
56015;SDS011;41894;51.016;4.672;2023-02-15T02:28:46;112.97;;;50.95;;
56015;SDS011;41894;51.016;4.672;2023-02-15T02:34:21;104.13;;;48.88;;
56015;SDS011;41894;51.016;4.672;2023-02-15T02:40:10;114.95;;;51.28;;
56015;SDS011;41894;51.016;4.672;2023-02-15T02:44:48;120.55;;;55.08;;
56015;SDS011;41894;51.016;4.672;2023-02-15T02:47:21;130.73;;;54.40;;
56015;SDS011;41894;51.016;4.672;2023-02-15T02:50:00;129.93;;;58.28;;
56015;SDS011;41894;51.016;4.672;2023-02-15T02:52:39;123.07;;;55.15;;
56015;SDS011;41894;51.016;4.672;2023-02-15T02:55:11;113.20;;;50.55;;
56015;SDS011;41894;51.016;4.672;2023-02-15T02:57:44;95.97;;;44.42;;
56015;SDS011;41894;51.016;4.672;2023-02-15T03:00:32;96.75;;;46.28;;
56015;SDS011;41894;51.016;4.672;2023-02-15T03:03:05;93.22;;;44.38;;
56015;SDS011;41894;51.016;4.672;2023-02-15T03:05:36;82.30;;;41.78;;
56015;SDS011;41894;51.016;4.672;2023-02-15T03:08:06;95.07;;;41.83;;
56015;SDS011;41894;51.016;4.672;2023-02-15T03:10:34;88.40;;;42.95;;
56015;SDS011;41894;51.016;4.672;2023-02-15T03:13:04;78.88;;;43.40;;
56015;SDS011;41894;51.016;4.672;2023-02-15T03:15:30;83.18;;;43.63;;
56015;SDS011;41894;51.016;4.672;2023-02-15T03:18:20;94.40;;;47.92;;
56015;SDS011;41894;51.016;4.672;2023-02-15T03:20:48;105.22;;;48.30;;
56015;SDS011;41894;51.016;4.672;2023-02-15T03:23:16;119.75;;;52.30;;
56015;SDS011;41894;51.016;4.672;2023-02-15T03:25:50;129.02;;;53.45;;
56015;SDS011;41894;51.016;4.672;2023-02-15T03:28:22;113.72;;;50.70;;
56015;SDS011;41894;51.016;4.672;2023-02-15T03:31:16;109.93;;;49.20;;
56015;SDS011;41894;51.016;4.672;2023-02-15T03:33:57;112.30;;;50.45;;
56015;SDS011;41894;51.016;4.672;2023-02-15T03:36:47;118.90;;;52.13;;
56015;SDS011;41894;51.016;4.672;2023-02-15T03:42:18;98.82;;;46.30;;
56015;SDS011;41894;51.016;4.672;2023-02-15T03:44:57;87.35;;;42.58;;
56015;SDS011;41894;51.016;4.672;2023-02-15T03:47:31;88.32;;;41.67;;
56015;SDS011;41894;51.016;4.672;2023-02-15T03:50:02;89.78;;;41.95;;
56015;SDS011;41894;51.016;4.672;2023-02-15T03:53:02;85.18;;;40.65;;
56015;SDS011;41894;51.016;4.672;2023-02-15T03:55:33;87.68;;;42.92;;
56015;SDS011;41894;51.016;4.672;2023-02-15T03:57:59;93.32;;;44.65;;
56015;SDS011;41894;51.016;4.672;2023-02-15T04:00:45;89.63;;;43.25;;
56015;SDS011;41894;51.016;4.672;2023-02-15T04:03:47;123.90;;;52.80;;
56015;SDS011;41894;51.016;4.672;2023-02-15T04:06:18;129.30;;;54.30;;
56015;SDS011;41894;51.016;4.672;2023-02-15T04:08:43;107.70;;;46.65;;
56015;SDS011;41894;51.016;4.672;2023-02-15T04:11:28;96.85;;;43.30;;
56015;SDS011;41894;51.016;4.672;2023-02-15T04:13:53;101.40;;;46.78;;
56015;SDS011;41894;51.016;4.672;2023-02-15T04:16:21;106.18;;;47.08;;
56015;SDS011;41894;51.016;4.672;2023-02-15T04:18:48;99.80;;;45.72;;
56015;SDS011;41894;51.016;4.672;2023-02-15T04:21:32;123.10;;;49.83;;
56015;SDS011;41894;51.016;4.672;2023-02-15T04:24:16;125.97;;;50.80;;
56015;SDS011;41894;51.016;4.672;2023-02-15T04:27:01;138.52;;;54.30;;
56015;SDS011;41894;51.016;4.672;2023-02-15T04:29:28;134.55;;;53.60;;
56015;SDS011;41894;51.016;4.672;2023-02-15T04:31:55;122.10;;;50.03;;
56015;SDS011;41894;51.016;4.672;2023-02-15T04:34:21;113.68;;;50.45;;
56015;SDS011;41894;51.016;4.672;2023-02-15T04:36:47;95.93;;;44.47;;
56015;SDS011;41894;51.016;4.672;2023-02-15T04:39:13;97.80;;;44.08;;
56015;SDS011;41894;51.016;4.672;2023-02-15T04:41:40;90.45;;;42.05;;
56015;SDS011;41894;51.016;4.672;2023-02-15T04:44:06;92.60;;;44.40;;
56015;SDS011;41894;51.016;4.672;2023-02-15T04:46:32;94.22;;;43.35;;
56015;SDS011;41894;51.016;4.672;2023-02-15T04:48:58;105.57;;;45.70;;
56015;SDS011;41894;51.016;4.672;2023-02-15T04:51:23;101.88;;;43.03;;
56015;SDS011;41894;51.016;4.672;2023-02-15T04:53:49;82.75;;;40.80;;
56015;SDS011;41894;51.016;4.672;2023-02-15T04:56:17;87.93;;;41.95;;
56015;SDS011;41894;51.016;4.672;2023-02-15T04:58:44;97.47;;;45.75;;
56015;SDS011;41894;51.016;4.672;2023-02-15T05:01:10;99.25;;;46.50;;
56015;SDS011;41894;51.016;4.672;2023-02-15T05:03:36;119.70;;;50.42;;
56015;SDS011;41894;51.016;4.672;2023-02-15T05:06:02;126.88;;;51.13;;
56015;SDS011;41894;51.016;4.672;2023-02-15T05:08:28;125.80;;;52.30;;
56015;SDS011;41894;51.016;4.672;2023-02-15T05:10:55;133.13;;;55.78;;
56015;SDS011;41894;51.016;4.672;2023-02-15T05:13:21;143.57;;;57.13;;
56015;SDS011;41894;51.016;4.672;2023-02-15T05:15:48;147.82;;;55.90;;
56015;SDS011;41894;51.016;4.672;2023-02-15T05:18:15;143.80;;;57.85;;
56015;SDS011;41894;51.016;4.672;2023-02-15T05:20:42;150.30;;;59.50;;
56015;SDS011;41894;51.016;4.672;2023-02-15T05:23:08;147.90;;;59.80;;
56015;SDS011;41894;51.016;4.672;2023-02-15T05:25:34;150.13;;;59.70;;
56015;SDS011;41894;51.016;4.672;2023-02-15T05:28:19;140.07;;;57.88;;
56015;SDS011;41894;51.016;4.672;2023-02-15T05:30:45;134.95;;;56.58;;
56015;SDS011;41894;51.016;4.672;2023-02-15T05:33:34;118.00;;;50.85;;
56015;SDS011;41894;51.016;4.672;2023-02-15T05:36:00;102.85;;;44.90;;
56015;SDS011;41894;51.016;4.672;2023-02-15T05:38:27;92.38;;;43.97;;
56015;SDS011;41894;51.016;4.672;2023-02-15T05:40:53;105.10;;;45.53;;
56015;SDS011;41894;51.016;4.672;2023-02-15T05:43:19;99.35;;;45.22;;
56015;SDS011;41894;51.016;4.672;2023-02-15T05:45:46;99.43;;;44.78;;
56015;SDS011;41894;51.016;4.672;2023-02-15T05:48:12;118.55;;;50.92;;
56015;SDS011;41894;51.016;4.672;2023-02-15T05:50:38;103.28;;;47.85;;
56015;SDS011;41894;51.016;4.672;2023-02-15T05:53:04;117.53;;;51.50;;
56015;SDS011;41894;51.016;4.672;2023-02-15T05:55:29;122.68;;;52.15;;
56015;SDS011;41894;51.016;4.672;2023-02-15T05:57:55;117.38;;;52.83;;
56015;SDS011;41894;51.016;4.672;2023-02-15T06:00:21;144.52;;;60.15;;
56015;SDS011;41894;51.016;4.672;2023-02-15T06:02:46;136.20;;;58.60;;
56015;SDS011;41894;51.016;4.672;2023-02-15T06:05:12;144.70;;;61.33;;
56015;SDS011;41894;51.016;4.672;2023-02-15T06:07:38;137.25;;;57.85;;
56015;SDS011;41894;51.016;4.672;2023-02-15T06:10:03;140.98;;;54.75;;
56015;SDS011;41894;51.016;4.672;2023-02-15T06:12:30;127.90;;;52.25;;
56015;SDS011;41894;51.016;4.672;2023-02-15T06:14:55;137.50;;;56.45;;
56015;SDS011;41894;51.016;4.672;2023-02-15T06:17:21;148.20;;;57.13;;
56015;SDS011;41894;51.016;4.672;2023-02-15T06:19:47;128.23;;;55.78;;
56015;SDS011;41894;51.016;4.672;2023-02-15T06:22:12;146.82;;;56.85;;
56015;SDS011;41894;51.016;4.672;2023-02-15T06:24:39;131.15;;;54.22;;
56015;SDS011;41894;51.016;4.672;2023-02-15T06:27:07;136.13;;;54.58;;
56015;SDS011;41894;51.016;4.672;2023-02-15T06:29:33;135.75;;;55.65;;
56015;SDS011;41894;51.016;4.672;2023-02-15T06:31:59;134.85;;;54.40;;
56015;SDS011;41894;51.016;4.672;2023-02-15T06:34:25;128.70;;;54.30;;
56015;SDS011;41894;51.016;4.672;2023-02-15T06:36:50;125.28;;;53.08;;
56015;SDS011;41894;51.016;4.672;2023-02-15T06:39:16;141.07;;;55.75;;
56015;SDS011;41894;51.016;4.672;2023-02-15T06:41:42;134.15;;;57.95;;
56015;SDS011;41894;51.016;4.672;2023-02-15T06:44:08;134.85;;;55.95;;
56015;SDS011;41894;51.016;4.672;2023-02-15T06:46:33;132.38;;;58.03;;
56015;SDS011;41894;51.016;4.672;2023-02-15T06:48:59;130.02;;;58.65;;
56015;SDS011;41894;51.016;4.672;2023-02-15T06:51:25;166.88;;;67.80;;
56015;SDS011;41894;51.016;4.672;2023-02-15T06:53:50;157.57;;;63.08;;
56015;SDS011;41894;51.016;4.672;2023-02-15T06:56:16;136.32;;;57.53;;
56015;SDS011;41894;51.016;4.672;2023-02-15T06:58:42;131.20;;;57.45;;
56015;SDS011;41894;51.016;4.672;2023-02-15T07:01:08;123.55;;;54.50;;
56015;SDS011;41894;51.016;4.672;2023-02-15T07:03:34;139.43;;;57.75;;
56015;SDS011;41894;51.016;4.672;2023-02-15T07:06:01;132.55;;;59.33;;
56015;SDS011;41894;51.016;4.672;2023-02-15T07:08:30;125.88;;;55.78;;
56015;SDS011;41894;51.016;4.672;2023-02-15T07:10:56;135.07;;;60.15;;
56015;SDS011;41894;51.016;4.672;2023-02-15T07:13:48;133.55;;;57.85;;
56015;SDS011;41894;51.016;4.672;2023-02-15T07:16:13;151.15;;;67.72;;
56015;SDS011;41894;51.016;4.672;2023-02-15T07:18:39;139.85;;;66.30;;
56015;SDS011;41894;51.016;4.672;2023-02-15T07:21:05;137.27;;;64.53;;
56015;SDS011;41894;51.016;4.672;2023-02-15T07:23:38;133.27;;;62.08;;
56015;SDS011;41894;51.016;4.672;2023-02-15T07:26:05;127.63;;;58.58;;
56015;SDS011;41894;51.016;4.672;2023-02-15T07:28:31;137.77;;;58.67;;
56015;SDS011;41894;51.016;4.672;2023-02-15T07:30:57;125.03;;;55.22;;
56015;SDS011;41894;51.016;4.672;2023-02-15T07:33:23;117.45;;;52.78;;
56015;SDS011;41894;51.016;4.672;2023-02-15T07:35:50;116.55;;;52.67;;
56015;SDS011;41894;51.016;4.672;2023-02-15T07:38:17;107.75;;;48.10;;
56015;SDS011;41894;51.016;4.672;2023-02-15T07:40:43;100.88;;;45.83;;
56015;SDS011;41894;51.016;4.672;2023-02-15T07:43:09;85.35;;;43.15;;
56015;SDS011;41894;51.016;4.672;2023-02-15T07:45:35;100.68;;;45.75;;
56015;SDS011;41894;51.016;4.672;2023-02-15T07:48:01;87.72;;;43.97;;
56015;SDS011;41894;51.016;4.672;2023-02-15T07:50:27;86.38;;;43.33;;
56015;SDS011;41894;51.016;4.672;2023-02-15T07:52:53;81.18;;;41.55;;
56015;SDS011;41894;51.016;4.672;2023-02-15T07:55:19;80.35;;;43.08;;
56015;SDS011;41894;51.016;4.672;2023-02-15T07:57:45;81.40;;;42.92;;
56015;SDS011;41894;51.016;4.672;2023-02-15T08:00:12;79.97;;;43.65;;
56015;SDS011;41894;51.016;4.672;2023-02-15T08:02:39;78.85;;;45.13;;
56015;SDS011;41894;51.016;4.672;2023-02-15T08:05:06;76.03;;;42.28;;
56015;SDS011;41894;51.016;4.672;2023-02-15T08:07:32;70.85;;;37.33;;
56015;SDS011;41894;51.016;4.672;2023-02-15T08:09:58;73.35;;;36.38;;
56015;SDS011;41894;51.016;4.672;2023-02-15T08:12:25;68.80;;;35.42;;
56015;SDS011;41894;51.016;4.672;2023-02-15T08:14:51;74.65;;;33.85;;
56015;SDS011;41894;51.016;4.672;2023-02-15T08:17:17;55.20;;;31.95;;
56015;SDS011;41894;51.016;4.672;2023-02-15T08:19:43;61.28;;;33.30;;
56015;SDS011;41894;51.016;4.672;2023-02-15T08:22:10;63.00;;;35.92;;
56015;SDS011;41894;51.016;4.672;2023-02-15T08:24:38;66.40;;;36.72;;
56015;SDS011;41894;51.016;4.672;2023-02-15T08:27:08;75.38;;;39.28;;
56015;SDS011;41894;51.016;4.672;2023-02-15T08:29:36;60.22;;;36.40;;
56015;SDS011;41894;51.016;4.672;2023-02-15T08:32:04;61.03;;;37.38;;
56015;SDS011;41894;51.016;4.672;2023-02-15T08:34:33;63.20;;;37.53;;
56015;SDS011;41894;51.016;4.672;2023-02-15T08:37:01;61.00;;;37.47;;
56015;SDS011;41894;51.016;4.672;2023-02-15T08:39:27;63.08;;;37.05;;
56015;SDS011;41894;51.016;4.672;2023-02-15T08:41:53;71.82;;;38.80;;
56015;SDS011;41894;51.016;4.672;2023-02-15T08:44:19;80.45;;;41.95;;
56015;SDS011;41894;51.016;4.672;2023-02-15T08:46:46;83.78;;;46.55;;
56015;SDS011;41894;51.016;4.672;2023-02-15T08:49:14;93.47;;;47.15;;
56015;SDS011;41894;51.016;4.672;2023-02-15T08:51:42;84.07;;;45.90;;
56015;SDS011;41894;51.016;4.672;2023-02-15T08:54:08;95.85;;;48.65;;
56015;SDS011;41894;51.016;4.672;2023-02-15T08:56:37;92.72;;;48.95;;
56015;SDS011;41894;51.016;4.672;2023-02-15T08:59:05;98.63;;;48.25;;
56015;SDS011;41894;51.016;4.672;2023-02-15T09:01:33;92.53;;;48.25;;
56015;SDS011;41894;51.016;4.672;2023-02-15T09:04:00;96.05;;;48.40;;
56015;SDS011;41894;51.016;4.672;2023-02-15T09:06:27;103.20;;;48.80;;
56015;SDS011;41894;51.016;4.672;2023-02-15T09:08:54;91.43;;;48.05;;
56015;SDS011;41894;51.016;4.672;2023-02-15T09:11:21;88.80;;;45.85;;
56015;SDS011;41894;51.016;4.672;2023-02-15T09:13:51;89.13;;;46.10;;
56015;SDS011;41894;51.016;4.672;2023-02-15T09:16:19;80.05;;;44.42;;
56015;SDS011;41894;51.016;4.672;2023-02-15T09:18:45;82.43;;;43.38;;
56015;SDS011;41894;51.016;4.672;2023-02-15T09:21:13;79.35;;;44.05;;
56015;SDS011;41894;51.016;4.672;2023-02-15T09:23:40;89.07;;;44.20;;
56015;SDS011;41894;51.016;4.672;2023-02-15T09:26:11;79.25;;;42.17;;
56015;SDS011;41894;51.016;4.672;2023-02-15T09:28:38;79.82;;;43.25;;
56015;SDS011;41894;51.016;4.672;2023-02-15T09:31:08;77.18;;;41.97;;
56015;SDS011;41894;51.016;4.672;2023-02-15T09:33:45;67.50;;;36.55;;
56015;SDS011;41894;51.016;4.672;2023-02-15T09:36:15;80.88;;;41.20;;
56015;SDS011;41894;51.016;4.672;2023-02-15T09:38:53;74.95;;;38.25;;
56015;SDS011;41894;51.016;4.672;2023-02-15T10:04:04;59.60;;;32.78;;
56015;SDS011;41894;51.016;4.672;2023-02-15T10:14:52;57.03;;;32.05;;
56015;SDS011;41894;51.016;4.672;2023-02-15T10:20:49;55.70;;;31.85;;
56015;SDS011;41894;51.016;4.672;2023-02-15T10:26:34;54.40;;;30.95;;
56015;SDS011;41894;51.016;4.672;2023-02-15T10:32:08;55.60;;;31.38;;
56015;SDS011;41894;51.016;4.672;2023-02-15T10:34:52;51.53;;;29.83;;
56015;SDS011;41894;51.016;4.672;2023-02-15T10:45:54;55.28;;;30.65;;
56015;SDS011;41894;51.016;4.672;2023-02-15T10:57:18;53.92;;;29.00;;
56015;SDS011;41894;51.016;4.672;2023-02-15T10:59:57;61.75;;;30.67;;
56015;SDS011;41894;51.016;4.672;2023-02-15T11:07:59;59.78;;;28.55;;
56015;SDS011;41894;51.016;4.672;2023-02-15T11:10:33;57.35;;;28.33;;
56015;SDS011;41894;51.016;4.672;2023-02-15T11:13:16;54.38;;;28.30;;
56015;SDS011;41894;51.016;4.672;2023-02-15T11:15:51;56.17;;;26.60;;
56015;SDS011;41894;51.016;4.672;2023-02-15T11:18:41;48.70;;;26.73;;
56015;SDS011;41894;51.016;4.672;2023-02-15T11:21:13;51.92;;;26.42;;
56015;SDS011;41894;51.016;4.672;2023-02-15T11:23:47;44.25;;;25.10;;
56015;SDS011;41894;51.016;4.672;2023-02-15T11:26:15;49.33;;;26.92;;
56015;SDS011;41894;51.016;4.672;2023-02-15T11:28:48;50.88;;;26.85;;
56015;SDS011;41894;51.016;4.672;2023-02-15T11:31:21;51.78;;;27.13;;
56015;SDS011;41894;51.016;4.672;2023-02-15T11:34:06;49.05;;;28.13;;
56015;SDS011;41894;51.016;4.672;2023-02-15T11:36:52;56.78;;;27.45;;
56015;SDS011;41894;51.016;4.672;2023-02-15T11:39:20;53.75;;;26.88;;
56015;SDS011;41894;51.016;4.672;2023-02-15T11:41:49;56.80;;;27.77;;
56015;SDS011;41894;51.016;4.672;2023-02-15T11:44:23;57.08;;;29.42;;
56015;SDS011;41894;51.016;4.672;2023-02-15T11:46:57;58.50;;;26.88;;
56015;SDS011;41894;51.016;4.672;2023-02-15T11:51:57;56.47;;;28.60;;
56015;SDS011;41894;51.016;4.672;2023-02-15T11:54:26;55.65;;;28.95;;
56015;SDS011;41894;51.016;4.672;2023-02-15T11:56:59;55.22;;;27.10;;
56015;SDS011;41894;51.016;4.672;2023-02-15T12:02:23;53.15;;;27.83;;
56015;SDS011;41894;51.016;4.672;2023-02-15T12:04:54;55.03;;;27.35;;
56015;SDS011;41894;51.016;4.672;2023-02-15T12:07:28;52.80;;;27.70;;
56015;SDS011;41894;51.016;4.672;2023-02-15T12:12:32;49.83;;;27.75;;
56015;SDS011;41894;51.016;4.672;2023-02-15T12:15:03;57.13;;;27.98;;
56015;SDS011;41894;51.016;4.672;2023-02-15T12:22:46;56.70;;;28.45;;
56015;SDS011;41894;51.016;4.672;2023-02-15T12:25:22;56.53;;;28.77;;
56015;SDS011;41894;51.016;4.672;2023-02-15T12:27:50;57.10;;;29.50;;
56015;SDS011;41894;51.016;4.672;2023-02-15T12:30:22;51.08;;;28.27;;
56015;SDS011;41894;51.016;4.672;2023-02-15T12:32:56;54.53;;;28.83;;
56015;SDS011;41894;51.016;4.672;2023-02-15T12:35:27;52.60;;;28.85;;
56015;SDS011;41894;51.016;4.672;2023-02-15T12:38:03;61.10;;;28.83;;
56015;SDS011;41894;51.016;4.672;2023-02-15T12:40:35;50.50;;;27.92;;
56015;SDS011;41894;51.016;4.672;2023-02-15T12:43:03;51.92;;;29.13;;
56015;SDS011;41894;51.016;4.672;2023-02-15T12:45:34;49.72;;;29.15;;
56015;SDS011;41894;51.016;4.672;2023-02-15T12:50:43;53.58;;;29.08;;
56015;SDS011;41894;51.016;4.672;2023-02-15T12:53:30;56.35;;;29.42;;
56015;SDS011;41894;51.016;4.672;2023-02-15T12:56:02;57.35;;;29.08;;
56015;SDS011;41894;51.016;4.672;2023-02-15T12:58:36;51.67;;;28.42;;
56015;SDS011;41894;51.016;4.672;2023-02-15T13:06:30;51.75;;;27.77;;
56015;SDS011;41894;51.016;4.672;2023-02-15T13:09:05;49.45;;;27.65;;
56015;SDS011;41894;51.016;4.672;2023-02-15T13:11:43;55.28;;;28.70;;
56015;SDS011;41894;51.016;4.672;2023-02-15T13:16:47;52.90;;;28.33;;
56015;SDS011;41894;51.016;4.672;2023-02-15T13:19:18;47.55;;;28.08;;
56015;SDS011;41894;51.016;4.672;2023-02-15T13:21:56;50.45;;;28.25;;
56015;SDS011;41894;51.016;4.672;2023-02-15T13:25:08;49.03;;;27.45;;
56015;SDS011;41894;51.016;4.672;2023-02-15T13:27:18;60.05;;;28.27;;
56015;SDS011;41894;51.016;4.672;2023-02-15T13:29:50;49.78;;;27.98;;
56015;SDS011;41894;51.016;4.672;2023-02-15T13:32:24;49.42;;;28.17;;
56015;SDS011;41894;51.016;4.672;2023-02-15T13:34:54;55.08;;;27.30;;
56015;SDS011;41894;51.016;4.672;2023-02-15T13:48:11;54.20;;;30.23;;
56015;SDS011;41894;51.016;4.672;2023-02-15T14:07:33;57.33;;;31.17;;
56015;SDS011;41894;51.016;4.672;2023-02-15T14:13:03;58.20;;;30.75;;
56015;SDS011;41894;51.016;4.672;2023-02-15T14:15:50;60.53;;;31.27;;
56015;SDS011;41894;51.016;4.672;2023-02-15T14:18:41;57.53;;;31.60;;
56015;SDS011;41894;51.016;4.672;2023-02-15T14:21:22;59.58;;;31.92;;
56015;SDS011;41894;51.016;4.672;2023-02-15T14:26:54;51.67;;;30.27;;
56015;SDS011;41894;51.016;4.672;2023-02-15T14:31:51;61.35;;;31.17;;
56015;SDS011;41894;51.016;4.672;2023-02-15T14:37:08;55.10;;;30.30;;
56015;SDS011;41894;51.016;4.672;2023-02-15T14:39:57;59.63;;;31.00;;
56015;SDS011;41894;51.016;4.672;2023-02-15T14:48:41;68.30;;;32.38;;
56015;SDS011;41894;51.016;4.672;2023-02-15T14:51:10;59.85;;;31.80;;
56015;SDS011;41894;51.016;4.672;2023-02-15T14:54:08;51.40;;;30.33;;
56015;SDS011;41894;51.016;4.672;2023-02-15T14:56:34;59.15;;;31.65;;
56015;SDS011;41894;51.016;4.672;2023-02-15T14:59:22;57.35;;;31.58;;
56015;SDS011;41894;51.016;4.672;2023-02-15T15:01:51;63.38;;;31.00;;
56015;SDS011;41894;51.016;4.672;2023-02-15T15:04:23;53.80;;;30.60;;
56015;SDS011;41894;51.016;4.672;2023-02-15T15:07:19;60.22;;;32.70;;
56015;SDS011;41894;51.016;4.672;2023-02-15T15:10:00;63.45;;;31.70;;
56015;SDS011;41894;51.016;4.672;2023-02-15T15:12:46;57.97;;;31.25;;
56015;SDS011;41894;51.016;4.672;2023-02-15T15:15:34;49.20;;;30.92;;
56015;SDS011;41894;51.016;4.672;2023-02-15T15:25:46;57.15;;;33.78;;
56015;SDS011;41894;51.016;4.672;2023-02-15T15:42:13;64.95;;;35.03;;
56015;SDS011;41894;51.016;4.672;2023-02-15T15:48:08;69.35;;;35.85;;
56015;SDS011;41894;51.016;4.672;2023-02-15T15:50:23;61.42;;;35.47;;
56015;SDS011;41894;51.016;4.672;2023-02-15T15:52:54;61.15;;;34.65;;
56015;SDS011;41894;51.016;4.672;2023-02-15T15:55:23;63.30;;;35.58;;
56015;SDS011;41894;51.016;4.672;2023-02-15T15:57:59;59.30;;;35.85;;
56015;SDS011;41894;51.016;4.672;2023-02-15T16:00:36;61.08;;;35.75;;
56015;SDS011;41894;51.016;4.672;2023-02-15T16:03:15;62.25;;;35.10;;
56015;SDS011;41894;51.016;4.672;2023-02-15T16:05:46;70.25;;;36.92;;
56015;SDS011;41894;51.016;4.672;2023-02-15T16:08:25;65.90;;;37.05;;
56015;SDS011;41894;51.016;4.672;2023-02-15T16:10:55;67.13;;;36.45;;
56015;SDS011;41894;51.016;4.672;2023-02-15T16:13:22;63.28;;;36.97;;
56015;SDS011;41894;51.016;4.672;2023-02-15T16:15:52;64.25;;;37.20;;
56015;SDS011;41894;51.016;4.672;2023-02-15T16:18:21;70.82;;;37.53;;
56015;SDS011;41894;51.016;4.672;2023-02-15T16:20:51;70.45;;;37.53;;
56015;SDS011;41894;51.016;4.672;2023-02-15T16:28:35;67.10;;;39.03;;
56015;SDS011;41894;51.016;4.672;2023-02-15T16:31:14;73.00;;;38.05;;
56015;SDS011;41894;51.016;4.672;2023-02-15T16:33:41;74.03;;;39.65;;
56015;SDS011;41894;51.016;4.672;2023-02-15T16:36:10;70.28;;;39.03;;
56015;SDS011;41894;51.016;4.672;2023-02-15T16:41:24;65.60;;;38.42;;
56015;SDS011;41894;51.016;4.672;2023-02-15T16:43:52;75.25;;;38.92;;
56015;SDS011;41894;51.016;4.672;2023-02-15T16:48:57;68.95;;;38.28;;
56015;SDS011;41894;51.016;4.672;2023-02-15T16:51:27;71.60;;;38.95;;
56015;SDS011;41894;51.016;4.672;2023-02-15T16:53:55;74.28;;;41.28;;
56015;SDS011;41894;51.016;4.672;2023-02-15T16:56:24;77.65;;;38.97;;
56015;SDS011;41894;51.016;4.672;2023-02-15T16:58:52;78.18;;;41.10;;
56015;SDS011;41894;51.016;4.672;2023-02-15T17:01:19;67.85;;;38.92;;
56015;SDS011;41894;51.016;4.672;2023-02-15T17:03:49;78.07;;;42.45;;
56015;SDS011;41894;51.016;4.672;2023-02-15T17:06:23;81.05;;;42.58;;
56015;SDS011;41894;51.016;4.672;2023-02-15T17:08:51;75.30;;;42.17;;
56015;SDS011;41894;51.016;4.672;2023-02-15T17:11:18;88.78;;;41.03;;
56015;SDS011;41894;51.016;4.672;2023-02-15T17:14:39;83.47;;;41.45;;
56015;SDS011;41894;51.016;4.672;2023-02-15T17:16:54;83.45;;;41.42;;
56015;SDS011;41894;51.016;4.672;2023-02-15T17:19:27;74.72;;;41.33;;
56015;SDS011;41894;51.016;4.672;2023-02-15T17:22:02;74.35;;;41.20;;
56015;SDS011;41894;51.016;4.672;2023-02-15T17:27:01;75.03;;;39.88;;
56015;SDS011;41894;51.016;4.672;2023-02-15T17:29:41;80.55;;;41.15;;
56015;SDS011;41894;51.016;4.672;2023-02-15T17:32:21;76.20;;;42.08;;
56015;SDS011;41894;51.016;4.672;2023-02-15T17:37:45;82.30;;;40.23;;
56015;SDS011;41894;51.016;4.672;2023-02-15T17:40:24;77.65;;;42.75;;
56015;SDS011;41894;51.016;4.672;2023-02-15T17:42:52;79.85;;;41.55;;
56015;SDS011;41894;51.016;4.672;2023-02-15T17:45:20;79.85;;;42.03;;
56015;SDS011;41894;51.016;4.672;2023-02-15T17:47:49;90.85;;;43.00;;